createdAt,value
2022-09-04T00:02:14.091Z,12
2022-09-04T00:16:41.878Z,12
2022-09-04T00:31:09.671Z,12.1
2022-09-04T00:45:34.253Z,12
2022-09-04T01:00:01.243Z,11.9
2022-09-04T04:14:29.785Z,12.1
2022-09-04T04:28:09.199Z,12.4
2022-09-04T04:42:31.217Z,12.4
2022-09-04T04:57:00.446Z,12.3
2022-09-04T05:11:25.386Z,12.3
2022-09-04T05:25:52.734Z,12.4
2022-09-04T05:40:22.838Z,12.8
2022-09-04T05:54:50.374Z,13
2022-09-04T06:09:19.672Z,13.2
2022-09-04T06:23:49.194Z,13.5
2022-09-04T06:38:18.979Z,13.9
2022-09-04T06:52:48.873Z,14.9
2022-09-04T07:07:19.621Z,15.5
2022-09-04T07:21:50.824Z,15.6
2022-09-04T07:36:32.701Z,16
2022-09-04T07:51:10.904Z,15.5
2022-09-04T08:05:35.751Z,15.9
2022-09-04T08:20:16.068Z,15.8
2022-09-04T08:34:48.169Z,15.7
2022-09-04T08:49:16.804Z,15.4
2022-09-04T09:03:46.950Z,16
2022-09-04T09:18:14.085Z,16
2022-09-04T09:32:40.853Z,15.9
2022-09-04T09:46:59.422Z,15.7
2022-09-04T10:01:25.906Z,15.3
2022-09-04T10:15:53.068Z,15.3
2022-09-04T10:30:21.718Z,15.5
2022-09-04T10:44:50.629Z,15.6
2022-09-04T10:59:14.086Z,15.4
2022-09-04T11:13:41.302Z,15.2
2022-09-04T11:28:16.350Z,15
2022-09-04T11:42:40.838Z,15
2022-09-04T11:57:16.706Z,14.6
2022-09-04T12:11:44.896Z,14.7
2022-09-04T12:26:12.035Z,14.6
2022-09-04T12:40:35.113Z,14.8
2022-09-04T12:55:11.631Z,14.8
2022-09-04T13:09:54.167Z,15.1
2022-09-04T13:24:16.608Z,14.5
2022-09-04T13:38:48.613Z,14.4
2022-09-04T13:53:12.006Z,14.3
2022-09-04T14:07:45.931Z,13.9
2022-09-04T14:22:16.199Z,14.1
2022-09-04T14:36:41.046Z,14.2
2022-09-04T14:51:11.116Z,14.1
2022-09-04T15:05:39.266Z,13.5
2022-09-04T15:20:17.491Z,14.1
2022-09-04T15:34:45.278Z,13.2
2022-09-04T15:49:08.630Z,13.8
2022-09-04T16:03:36.921Z,13.7
2022-09-04T16:32:37.063Z,13.7
2022-09-04T16:47:11.282Z,14.1
2022-09-04T17:01:35.770Z,14.7
2022-09-04T17:16:04.033Z,14.5
2022-09-04T17:30:32.158Z,14.7
2022-09-04T17:44:58.195Z,14.6
2022-09-04T17:59:24.965Z,14.4
2022-09-04T18:13:52.455Z,14.4
2022-09-04T18:28:20.296Z,14.4
2022-09-04T18:51:22.252Z,14.2
2022-09-04T19:05:04.595Z,14
2022-09-04T19:19:33.107Z,14.2
2022-09-04T19:34:01.693Z,14.4
2022-09-04T19:48:31.260Z,14.6
2022-09-04T20:02:55.286Z,14.6
2022-09-04T20:17:23.098Z,14.6
2022-09-04T20:31:50.995Z,14.5
2022-09-04T20:53:19.606Z,14.7
2022-09-04T21:06:58.065Z,14.6
2022-09-04T21:21:25.518Z,14.7
2022-09-04T21:36:00.399Z,14.6
2022-09-04T21:50:37.611Z,14.6
2022-09-04T22:05:05.917Z,14.6
2022-09-04T22:19:34.767Z,14.6
2022-09-04T22:34:17.941Z,14.5
2022-09-04T22:48:36.530Z,14.4
2022-09-04T23:03:11.479Z,14.4
2022-09-04T23:17:33.836Z,14.5
2022-09-04T23:32:10.511Z,14.3
2022-09-04T23:46:32.018Z,14.3
